Tiempo atmosférico en la estación meteorológica de La Roda de Andalucía, Sevilla (410 m.)



Fecha
DESCASC
Temp. máxima en grados centígrados (hora)
DESCASC
Temp. mínima en grados centígrados (hora)
DESCASC
Temp. media en grados centígrados
DESCASC
Racha de viento máxima en m/sg (hora)
DESCASC
Velocidad máxima media en intervalos de 10 minutos(hora)
DESCASC
Precipitaciones diarias en mm
DESCASC
Precipitaciones de 00:00 a 06:00 en mm
DESCASC
Precipitaciones de 06:00 a 12:00 en mm
DESCASC
Precipitaciones de 12:00 a 18:00 en mm
DESCASC
Precipitaciones de 18:00 a 24:00 en mm
DESCASC
18-04-2019 18.8 (15:40) 8.1 (23:59) 13.4 -- (--) -- (--) 9.6 1 0.4 3.4 4.8
17-04-2019 19.5 (12:50) 13.3 (23:00) 16.4 16.11 (08:30) 9.44 (09:10) 0 0 0 0 0
16-04-2019 25.5 (16:20) 7.1 (00:00) 16.3 -- (--) -- (--) 0 0 0 0 0
15-04-2019 28.3 (15:10) 12.3 (00:00) 20.3 -- (--) -- (--) 0 0 0 0 0
14-04-2019 25.9 (16:50) 7.5 (00:00) 16.7 6.94 (00:50) 3.89 (00:20) 0 0 0 0 0
13-04-2019 22.9 (17:40) 6.8 (00:00) 14.8 6.94 (17:00) 3.89 (17:00) 0 0 0 0 0
12-04-2019 20.9 (16:40) 4.4 (00:00) 12.6 6.67 (17:00) 3.61 (13:10) 0 0 0 0 0
11-04-2019 18.4 (16:30) 6.7 (00:00) 12.5 7.5 (16:30) 4.44 (15:40) 0 0 0 0 0
10-04-2019 17 (18:40) 6.1 (00:00) 11.5 10 (20:20) 5.56 (20:20) 0 0 0 0 0
09-04-2019 16.7 (15:40) 6.5 (00:00) 11.6 11.11 (15:30) 6.39 (15:40) 0 0 0 0 0
08-04-2019 16.2 (12:30) 10.2 (00:00) 13.2 11.11 (18:00) 6.11 (19:00) 2 0.4 0 1.6 0
07-04-2019 15.2 (15:00) 8.1 (00:00) 11.7 10 (13:40) 5.28 (13:50) 5.8 0 1.2 1.6 3
06-04-2019 14.3 (15:30) 6.5 (00:00) 10.4 -- (--) -- (--) 12.2 0 0.4 2.4 9.4
05-04-2019 13.2 (16:00) 7.5 (00:00) 10.3 -- (--) -- (--) 7.8 0 4.4 3.2 0.2
04-04-2019 18.5 (17:30) 5.1 (00:00) 11.8 -- (--) -- (--) 0 0 0 0 0
03-04-2019 21.1 (16:00) 8.1 (08:10) 14.6 -- (--) -- (--) 0 0 0 0 0
02-04-2019 19.9 (15:10) 6 (00:00) 12.9 -- (--) -- (--) -- -- 0 0 0
01-04-2019 17.5 (13:30) 8.2 (00:00) 12.8 -- (--) -- (--) -- -- -- -- --
31-03-2019 19.4 (18:00) 11.1 (00:00) 15.3 -- (--) -- (--) -- -- -- -- --
30-03-2019 18.8 (14:40) 10.6 (00:00) 14.7 13.33 (09:00) 8.06 (09:10) -- -- -- -- --
29-03-2019 17.8 (14:20) 8.2 (00:00) 13 12.78 (11:00) 7.5 (13:40) -- -- -- -- --
28-03-2019 19.7 (15:40) 5.3 (00:00) 12.5 14.72 (13:20) 8.33 (13:40) 0 0 0 0 0
27-03-2019 20 (14:30) 7.3 (00:00) 13.7 10.83 (18:00) 6.11 (02:50) 0 0 0 0 0
26-03-2019 23.2 (13:40) 9.7 (00:00) 16.5 12.22 (18:10) 7.5 (17:30) 0 0 0 0 0
25-03-2019 22.7 (14:50) 5.7 (00:00) 14.2 9.72 (17:30) 5.83 (17:30) 0 0 0 0 0
24-03-2019 20.8 (13:10) 6.5 (00:00) 13.6 11.94 (13:40) 6.94 (13:30) 0 0 0 0 0
23-03-2019 19.5 (16:40) 3.6 (00:00) 11.5 12.5 (13:20) 7.5 (14:10) 0 0 0 0 0
22-03-2019 19.3 (14:00) 1.6 (00:00) 10.4 8.89 (19:30) 5.28 (17:00) 0 0 0 0 0
21-03-2019 18.4 (14:10) 1.5 (00:00) 9.9 10.83 (14:30) 5.83 (18:10) 0 0 0 0 0

Gráficas

Temp. máximas Temp. mínimas Temp. medias Precipitaciones Rachas de viento máximas Velocidades máximas media en intervalos de 10 minutos

Datos horarios

Fecha y hora oficial Temperatura (ºC) Velocidad del viento (km/h) Dirección del viento Racha (km/h) Dirección de racha Precipitación (mm) Presión (hPa) Tendencia (hPa) Humedad (%)
2019-04-19 23:00:00 10.5 5 Oeste 15 Oeste 0 967.3 1.7 83
2019-04-19 22:00:00 11.4 6 Oeste 16 Oeste 0 967 1.9 80
2019-04-19 21:00:00 12 9 Sudoeste -- -- 0 966.6 1.9 79
2019-04-19 20:00:00 12.3 11 Sur 23 Sur 0 965.6 1.2 76
2019-04-19 19:00:00 13.3 11 Sur -- -- 0 965.1 0.4 68
2019-04-19 18:00:00 16.7 10 Nordeste -- -- 0 964.7 -0.4 46
2019-04-19 17:00:00 17.1 11 Nordeste 21 Nordeste 0 964.4 -1.4 49
2019-04-19 16:00:00 19.6 7 Noroeste 18 Oeste 0 964.7 -1.8 41
2019-04-19 15:00:00 17.5 8 Noroeste 21 Noroeste 0 965.1 -1.5 47
2019-04-19 14:00:00 17.3 7 Norte 15 Nordeste 0 965.8 -0.6 48
2019-04-19 13:00:00 15 5 Norte 11 Noroeste 0 966.5 0.3 58
2019-04-19 12:00:00 14.7 2 Noroeste 12 Norte 0 966.6 0.7 61
2019-04-19 11:00:00 13 4 Nordeste 10 Norte 0 966.4 0.9 70
2019-04-19 10:00:00 11.1 2 Sudoeste 6 Sur 0 966.2 0.9 90
2019-04-19 09:00:00 7.9 4 Sur -- -- 0 965.9 0.8 95
2019-04-19 08:00:00 6.8 3 Sur -- -- 0.2 965.5 0 94
2019-04-19 07:00:00 7.6 4 Sur 10 Sur 0 965.3 -0.6 94
2019-04-19 06:00:00 8.4 7 Sur 12 Sur 0 965.1 -1.1 94
2019-04-19 05:00:00 8.5 6 Sur 12 Sur 0 965.5 -0.9 94
2019-04-19 04:00:00 8.8 8 Sur 13 Sudoeste 0 965.9 -0.4 94
2019-04-19 03:00:00 8.8 8 Sur 11 Sur 0 966.2 -0.1 94
2019-04-19 02:00:00 8.8 5 Sur 10 Sudeste 0 966.4 0.4 94
2019-04-19 01:00:00 7.6 6 Sur 9 Sur 0 966.3 0.7 93
2019-04-19 00:00:00 8.1 6 Sur 9 Sur 0 966.3 1 92
2019-04-18 23:00:00 8.9 8 Sur 12 Sur 0 966 0.8 92
2019-04-18 22:00:00 9.7 6 Sur 11 Sur 0 965.6 0.8 91
2019-04-18 21:00:00 10.5 4 Sudeste -- -- 0 965.3 1.5 88
2019-04-18 20:00:00 10.8 14 Norte 37 Noroeste 1.2 965.2 1.9 82
2019-04-18 19:00:00 10.2 22 Oeste 41 Noroeste 3.6 964.8 1.3 83
2019-04-18 18:00:00 11.8 6 Sudoeste 36 Oeste 3.4 963.8 0.1 77
2019-04-18 17:00:00 16.2 14 Oeste -- -- 0 963.3 -0.6 50
2019-04-18 16:00:00 17.2 13 Noroeste -- -- 0 963.5 -1 48
2019-04-18 15:00:00 17.1 13 Oeste 29 Oeste 0 963.7 -0.7 49
2019-04-18 14:00:00 17.1 12 Oeste 26 Noroeste 0 963.9 -1.3 53
2019-04-18 13:00:00 15.7 7 Oeste -- -- 0 964.5 -0.6 50
2019-04-18 12:00:00 15.2 4 Oeste -- -- 0 964.4 -0.3 63
2019-04-18 11:00:00 14.2 9 Oeste 22 Oeste 0 965.2 0.9 71
2019-04-18 10:00:00 13.3 11 Oeste 21 Oeste 0 965.1 0.9 80
2019-04-18 09:00:00 10.8 -- -- -- -- 0 964.7 0.6 91
2019-04-18 08:00:00 10.7 -- -- -- -- 0 964.3 0 91
2019-04-18 07:00:00 11.2 4 Norte 9 Oeste 0.4 964.2 -0.6 90
2019-04-18 06:00:00 11.3 3 Sudoeste 7 Oeste 0.2 964.1 -1.2 89
2019-04-18 05:00:00 11.4 4 Sudoeste 13 Este 0.8 964.3 -1 86
2019-04-18 04:00:00 12.3 5 Oeste 14 Oeste 0 964.8 -0.4 71
2019-04-18 03:00:00 13 6 Noroeste 24 Sudoeste 0 965.3 -0.7 62
2019-04-18 02:00:00 13.1 6 Sur 25 Sudeste 0 965.3 -1.1 69
2019-04-18 01:00:00 13.7 13 Sudeste 21 Sudeste 0 965.2 -0.6 68
2019-04-18 00:00:00 13.6 9 Sur 18 Sur 0 966 1.6 66
2019-04-17 23:00:00 13.3 7 Sudoeste 24 Oeste 0 966.4 2.2 63
2019-04-17 22:00:00 13.6 10 Oeste 30 Oeste 0 965.8 2.1 63
2019-04-17 21:00:00 14.4 17 Oeste 35 Oeste 0 964.4 1.6 65
2019-04-17 20:00:00 16.8 -- -- -- -- 0 964.2 1.6 53
2019-04-17 19:00:00 17.3 20 Sur 43 Sur 0 963.7 1.8 51
2019-04-17 18:00:00 17.6 22 Sur -- -- 0 962.8 1.2 51
2019-04-17 17:00:00 18 26 Sudoeste 46 Sur 0 962.6 1.1 55
2019-04-17 16:00:00 18.6 21 Sur 45 Sur 0 961.9 -0.6 52
2019-04-17 15:00:00 18.2 23 Sur 51 Sur 0 961.6 -1.6 56
2019-04-17 14:00:00 18.9 30 Sur 53 Sudeste 0 961.5 -2 53
2019-04-17 13:00:00 18.2 26 Sur 48 Sur 0 962.5 -0.8 52
2019-04-17 12:00:00 18.6 25 Sur 48 Sur 0 963.2 0.2 52
2019-04-17 11:00:00 17.1 27 Sur 53 Sur 0 963.5 0.5 53
2019-04-17 10:00:00 16 24 Sur 55 Sur 0 963.3 0.3 54
2019-04-17 09:00:00 14.9 33 Sur 58 Sur 0 963 -0.7 59
2019-04-17 08:00:00 13.6 30 Sur 52 Sur 0 963 -1 67
2019-04-17 07:00:00 13.8 24 Sur 43 Sur 0 963 -2 64
2019-04-17 06:00:00 14.3 24 Sur 47 Sur 0 963.7 -2 60
2019-04-17 05:00:00 14.6 21 Sur 42 Sur 0 964 -2.3 55
2019-04-17 04:00:00 13.8 17 Sur 42 Sur 0 965 -1.5 64
2019-04-17 03:00:00 13.9 19 Sur 45 Sur 0 965.7 -0.4 68
2019-04-17 02:00:00 14.5 23 Sur 39 Sur 0 966.3 0.4 60
2019-04-17 01:00:00 15 20 Sur 43 Sur 0 966.5 0.7 57
2019-04-17 00:00:00 15.7 19 Sur 38 Sur 0 966.1 0.2 53
2019-04-16 23:00:00 16.5 22 Sur 37 Sur 0 965.9 0.5 32
2019-04-16 22:00:00 17.4 18 Sur 33 Sur 0 965.8 0.5 24
2019-04-16 21:00:00 18.7 11 Sur 32 Sur 0 965.9 0.4 22
2019-04-16 20:00:00 22.1 -- -- -- -- 0 965.4 -0.6 19
2019-04-16 19:00:00 23.9 18 Sur 35 Sudeste 0 965.3 -1.3 17
2019-04-16 18:00:00 24.9 17 Sur 30 Sur 0 965.5 -1.8 15
2019-04-16 17:00:00 24.9 18 Sur 36 Sudeste 0 966 -1.8 16
2019-04-16 16:00:00 25.1 17 Sur 33 Sudeste 0 966.6 -2.1 20
2019-04-16 15:00:00 25 15 Sur 30 Sudeste 0 967.3 -2.2 26
2019-04-16 14:00:00 23.4 9 Sur 21 Sur 0 967.8 -1.8 36
2019-04-16 13:00:00 21.3 8 Este 18 Norte 0 968.7 -0.9 42
2019-04-16 12:00:00 18.7 7 Nordeste 15 Norte 0 969.5 -0.3 55
2019-04-16 11:00:00 16.1 4 Noroeste 8 Oeste 0 969.6 0.1 67
2019-04-16 10:00:00 13.5 3 Norte -- -- 0 969.6 0.2 79
2019-04-16 09:00:00 9.2 2 Este 5 Sudoeste 0 969.8 0.2 92
2019-04-16 08:00:00 7.3 5 Sur -- -- 0 969.5 -0.4 91
2019-04-16 07:00:00 7.3 5 Sur 9 Sur 0 969.4 -0.5 90
2019-04-16 06:00:00 7.9 8 Sur 9 Sur 0 969.6 -0.5 88
2019-04-16 05:00:00 9.4 3 Sudoeste 5 Oeste 0 969.9 -0.5 84
2019-04-16 04:00:00 11.1 3 Oeste 13 Oeste 0 969.9 0 82
2019-04-16 03:00:00 12 6 Sudoeste 13 Oeste 0 970.1 0 78
2019-04-16 02:00:00 13 7 Oeste 19 Sudoeste 0 970.4 0.6 75
2019-04-16 01:00:00 13.4 10 Oeste 21 Oeste 0 969.9 0.9 74
2019-04-16 00:00:00 14.1 10 Oeste 26 Sudoeste 0 970.1 1.7 71
2019-04-15 23:00:00 15.1 15 Sudoeste 26 Oeste 0 969.8 2.7 70
2019-04-15 22:00:00 16.2 13 Sudoeste 27 Oeste 0 969 2.3 62
2019-04-15 21:00:00 18 18 Oeste 30 Oeste 0 968.4 2.5 52
2019-04-15 20:00:00 21.1 14 Sudoeste -- -- 0 967.1 1.8 34
2019-04-15 19:00:00 23.1 17 Oeste 46 Oeste 0 966.7 1.4 27
2019-04-15 18:00:00 25.1 21 Oeste 36 Oeste 0 965.9 0.7 20
2019-04-15 17:00:00 26.1 19 Sudoeste 44 Oeste 0 965.3 0 20
2019-04-15 16:00:00 25.9 25 Oeste 41 Oeste 0 965.3 -0.7 23
2019-04-15 15:00:00 28 9 Sudoeste 21 Oeste 0 965.2 -1 21
2019-04-15 14:00:00 26.1 9 Sudoeste 17 Oeste 0 965.3 -0.8 25
2019-04-15 13:00:00 24.4 7 Oeste 21 Sudoeste 0 966 0.3 29
2019-04-15 12:00:00 24 11 Sudoeste 19 Sudoeste 0 966.2 0.8 25
2019-04-15 11:00:00 21 6 Sur 11 Sur 0 966.1 1.5 42
2019-04-15 10:00:00 19.2 9 Sur 23 Sudoeste 0 965.7 1.3 47
2019-04-15 09:00:00 16 13 Sudoeste -- -- 0 965.4 0.8 57
2019-04-15 08:00:00 12.5 14 Sur 18 Sur 0 964.6 -0.4 71
2019-04-15 07:00:00 13 4 Este 13 Sur 0 964.4 -1.2 73
2019-04-15 06:00:00 13.1 4 Sur 10 Sur 0 964.6 -1.8 79
2019-04-15 05:00:00 14.1 3 Sudeste 7 Sur 0 965 -2.1 75
2019-04-15 04:00:00 14.2 5 Sur 10 Sur 0 965.6 -1.8 73
2019-04-15 03:00:00 15.1 9 Sur 11 Sur 0 966.4 -1.3 74
2019-04-15 02:00:00 16.4 8 Sur 10 Sur 0 967.1 -0.8 64
2019-04-15 01:00:00 16.6 7 Sur 10 Sur 0 967.4 -0.4 64
2019-04-15 00:00:00 16.6 4 Sur 8 Sur 0 967.7 0.4 64
2019-04-14 23:00:00 17.3 6 Sur 9 Sur 0 967.9 0.6 62
2019-04-14 22:00:00 18.7 4 Sur 5 Sur 0 967.8 0.4 58
2019-04-14 21:00:00 21.4 5 Norte 13 Norte 0 967.3 0 44
2019-04-14 20:00:00 22.7 9 Norte -- -- 0 967.3 -0.5 39
2019-04-14 19:00:00 24.3 14 Norte 21 Norte 0 967.4 -1 33
2019-04-14 18:00:00 25.2 12 Norte 23 Norte 0 967.3 -1.7 30
2019-04-14 17:00:00 24.5 9 Nordeste 17 Norte 0 967.8 -1.7 30
2019-04-14 16:00:00 25.4 8 Noroeste 18 Noroeste 0 968.4 -1.6 28
2019-04-14 15:00:00 24.5 6 Noroeste 13 Oeste 0 969 -1.3 29
2019-04-14 14:00:00 23.2 6 Noroeste 12 Norte 0 969.5 -1.2 32
2019-04-14 13:00:00 23.2 5 Sudeste 11 Sudeste 0 970 -0.5 30
2019-04-14 12:00:00 21.6 3 Nordeste 9 Este 0 970.3 -0.2 32
2019-04-14 11:00:00 18.8 3 Este 9 Sur 0 970.7 0.5 41
2019-04-14 10:00:00 15.3 5 Sur 9 Sur 0 970.5 0.3 50
2019-04-14 09:00:00 10.8 5 Sur 12 Sur 0 970.5 0.3 77
2019-04-14 08:00:00 8.9 9 Sur 12 Sur 0 970.2 -0.4 77
2019-04-14 07:00:00 8.5 8 Sur 12 Sur 0 970.2 -0.8 78
2019-04-14 06:00:00 7.9 8 Sur 9 Sur 0 970.2 -1 78
2019-04-14 05:00:00 9.9 8 Sur 12 Sur 0 970.6 -1 70
2019-04-14 04:00:00 9.1 7 Sur 11 Sur 0 971 -0.7 75
2019-04-14 03:00:00 9.6 8 Sur 10 Sur 0 971.2 -0.7 70
2019-04-14 02:00:00 12.8 3 Sudeste 23 Sudoeste 0 971.6 -0.4 54
2019-04-14 01:00:00 14.7 13 Oeste 25 Sudoeste 0 971.7 0.5 47
2019-04-14 00:00:00 13.9 9 Sudoeste 16 Oeste 0 971.9 1.5 52
2019-04-13 23:00:00 14.6 9 Sudoeste 16 Oeste 0 972 1.8 49
2019-04-13 22:00:00 13.9 6 Sudoeste 8 Sudoeste 0 971.2 1.3 53
2019-04-13 21:00:00 18.8 7 Oeste 18 Noroeste 0 970.4 0.6 32
2019-04-13 20:00:00 21 12 Noroeste -- -- 0 970.2 0.3 24
2019-04-13 19:00:00 22.4 -- -- -- -- 0 969.9 -0.5 23
2019-04-13 18:00:00 22.4 9 Noroeste 24 Noroeste 0 969.8 -0.8 21
2019-04-13 17:00:00 22 14 Norte 25 Norte 0 969.9 -1.1 24
2019-04-13 16:00:00 21.9 9 Nordeste 19 Norte 0 970.4 -1.1 25
2019-04-13 15:00:00 21.9 8 Noroeste 19 Noroeste 0 970.6 -1.1 23
2019-04-13 14:00:00 20.6 7 Norte 23 Norte 0 971 -0.7 24
2019-04-13 13:00:00 20.1 9 Nordeste 17 Norte 0 971.5 0 27
2019-04-13 12:00:00 18.6 5 Noroeste 9 Noroeste 0 971.7 0.7 36
2019-04-13 11:00:00 16 4 Norte 7 Norte 0 971.7 1 41
2019-04-13 10:00:00 12.4 2 Noroeste 5 Noroeste 0 971.5 1.2 61
2019-04-13 09:00:00 8.5 0 Calma 9 Sur 0 971 1.1 73
2019-04-13 08:00:00 7 6 Sur 12 Sur 0 970.7 0.7 75
2019-04-13 07:00:00 7.4 10 Sur 12 Sur 0 970.3 0.4 75
2019-04-13 06:00:00 7.5 6 Sur 10 Sur 0 969.9 -0.4 74
2019-04-13 05:00:00 8.2 9 Sur 11 Sur 0 970 -0.5 71
2019-04-13 04:00:00 9.1 9 Sur 12 Sur 0 969.9 -0.6 68
2019-04-13 03:00:00 9.6 7 Sur 15 Oeste 0 970.3 0.1 65
2019-04-13 02:00:00 11.2 5 Oeste 17 Sudoeste 0 970.5 0.9 58
2019-04-13 01:00:00 12 10 Oeste 17 Oeste 0 970.5 1.5 54
2019-04-13 00:00:00 11.7 9 Sudoeste 16 Oeste 0 970.2 1.8 53
2019-04-12 23:00:00 12.1 2 Sudoeste 10 Sudoeste 0 969.6 1.3 51
2019-04-12 22:00:00 12.6 4 Sudoeste 8 Sur 0 969 0.8 52
2019-04-12 21:00:00 16.9 3 Sudoeste 16 Noroeste 0 968.4 0.2 37
2019-04-12 20:00:00 19 11 Noroeste 23 Noroeste 0 968.3 -0.1 25
2019-04-12 19:00:00 19.8 11 Norte 23 Norte 0 968.2 -0.9 25
2019-04-12 18:00:00 20 13 Norte 23 Norte 0 968.2 -1.2 27
2019-04-12 17:00:00 20.1 10 Norte 24 Noroeste 0 968.4 -1.4 26
2019-04-12 16:00:00 20.3 7 Noroeste 21 Noroeste 0 969.1 -1 23
2019-04-12 15:00:00 19.7 12 Norte 22 Norte 0 969.4 -1 26
2019-04-12 14:00:00 19.2 7 Noroeste 22 Norte 0 969.8 -0.3 27
2019-04-12 13:00:00 18.5 8 Norte 20 Norte 0 970.1 0 25
2019-04-12 12:00:00 17.1 3 Sudeste 11 Sur 0 970.4 0.3 47
2019-04-12 11:00:00 14.8 3 Sur 11 Sur 0 970.1 0.5 58
2019-04-12 10:00:00 11.6 6 Sur 9 Sur 0 970.1 0.9 76
2019-04-12 09:00:00 7.2 5 Sur 8 Sur 0 970.1 1.1 92
2019-04-12 08:00:00 4.5 5 Sur 8 Sur 0 969.6 0.5 91
2019-04-12 07:00:00 5 6 Sur 8 Sur 0 969.2 0.2 89
2019-04-12 06:00:00 5.7 6 Sur 9 Sur 0 969 -0.4 87
2019-04-12 05:00:00 7 3 Sur 11 Sur 0 969.1 -0.8 85
2019-04-12 04:00:00 8.3 9 Sur 12 Sur 0 969 -0.6 84
2019-04-12 03:00:00 8.9 5 Sudoeste 10 Oeste 0 969.4 -0.1 80
2019-04-12 02:00:00 10.2 6 Oeste 14 Oeste 0 969.9 0.4 75
2019-04-12 01:00:00 11.7 9 Oeste 19 Oeste 0 969.6 0.4 69
2019-04-12 00:00:00 10.7 8 Oeste 16 Oeste 0 969.5 0.9 72
2019-04-11 23:00:00 10.6 4 Sudoeste 7 Sudoeste 0 969.5 1.2 70
2019-04-11 22:00:00 11.6 5 Sudoeste 8 Sudoeste 0 969.2 0.6 64
2019-04-11 21:00:00 15.4 5 Noroeste 18 Noroeste 0 968.6 0.1 44
2019-04-11 20:00:00 17.1 10 Noroeste 22 Norte 0 968.3 -0.3 35
2019-04-11 19:00:00 17.3 15 Noroeste 26 Noroeste 0 968.6 -0.6 32
2019-04-11 18:00:00 17.7 11 Noroeste 27 Norte 0 968.5 -1 30
2019-04-11 17:00:00 18.2 13 Norte 27 Norte 0 968.6 -1 32
2019-04-11 16:00:00 17.6 14 Noroeste 26 Norte 0 969.2 -0.7 34
2019-04-11 15:00:00 17.3 15 Noroeste 27 Norte 0 969.5 -0.4 36
2019-04-11 14:00:00 16.6 12 Norte 23 Norte 0 969.6 -0.4 44
2019-04-11 13:00:00 15.7 12 Norte 21 Norte 0 969.9 0 50
2019-04-11 12:00:00 14.2 6 Norte 13 Norte 0 969.9 0 56
2019-04-11 11:00:00 12.3 5 Norte 11 Norte 0 970 0.7 62
2019-04-11 10:00:00 10.8 4 Norte 8 Norte 0 969.9 0.9 69
2019-04-11 09:00:00 7.7 0 Calma 10 Sudoeste 0 969.9 0.8 82
2019-04-11 08:00:00 6.7 6 Sudoeste 15 Oeste 0 969.3 0.3 84
2019-04-11 07:00:00 7.8 7 Oeste 23 Sudoeste 0 969 0.2 79
2019-04-11 06:00:00 8 9 Oeste 15 Oeste 0 969.1 -0.2 78
2019-04-11 05:00:00 8.2 7 Oeste 14 Oeste 0 969 -0.2 75
2019-04-11 04:00:00 8.9 8 Oeste 19 Oeste 0 968.8 -0.2 71
2019-04-11 03:00:00 9.6 10 Oeste 17 Oeste 0 969.3 0.3 68
2019-04-11 02:00:00 10.5 6 Oeste 21 Noroeste 0 969.2 0.3 63
2019-04-11 01:00:00 12.6 13 Noroeste 25 Noroeste 0 969 0.6 55
2019-04-11 00:00:00 10.6 7 Oeste 19 Noroeste 0 969 1.6 61
2019-04-10 23:00:00 13.1 13 Noroeste 24 Noroeste 0 968.9 2.1 48
2019-04-10 22:00:00 13.3 10 Noroeste 20 Noroeste 0 968.4 1.5 49
2019-04-10 21:00:00 14.7 12 Noroeste 36 Noroeste 0 967.4 0.3 44
2019-04-10 20:00:00 16.3 13 Noroeste 26 Oeste 0 966.8 -0.8 39
2019-04-10 19:00:00 15.7 15 Oeste 30 Oeste 0 966.9 -1.2 48
2019-04-10 18:00:00 16.1 18 Noroeste 32 Noroeste 0 967.1 -1.4 47
2019-04-10 17:00:00 16.2 16 Noroeste 32 Noroeste 0 967.6 -1.3 48
2019-04-10 16:00:00 14.4 13 Noroeste 27 Noroeste 0 968.1 -1.1 52
2019-04-10 15:00:00 13.9 15 Noroeste 26 Noroeste 0 968.5 -0.9 52
2019-04-10 14:00:00 13.6 13 Noroeste 27 Oeste 0 968.9 -0.6 54
2019-04-10 13:00:00 12.1 10 Noroeste 24 Noroeste 0 969.2 -0.3 60
2019-04-10 12:00:00 11.5 14 Oeste 25 Noroeste 0 969.4 0.2 66
2019-04-10 11:00:00 10.2 15 Oeste 24 Oeste 0 969.5 1 74
2019-04-10 10:00:00 9 12 Oeste -- -- 0 969.5 0.9 82
2019-04-10 09:00:00 7 -- -- -- -- 0 969.2 0.7 91
2019-04-10 08:00:00 6.3 5 Oeste 10 Sudoeste 0 968.5 -0.4 91
2019-04-10 07:00:00 7 3 Este 13 Oeste 0 968.6 -0.3 90
2019-04-10 06:00:00 7.7 4 Oeste 13 Oeste 0 968.5 -0.8 88
2019-04-10 05:00:00 8.7 6 Oeste 15 Noroeste 0 968.9 -0.6 85
2019-04-10 04:00:00 9.6 10 Oeste 18 Oeste 0 968.9 -0.5 83
2019-04-10 03:00:00 10.4 12 Oeste 22 Oeste 0 969.3 -0.3 82
2019-04-10 02:00:00 10.5 11 Oeste 19 Oeste 0 969.5 0.2 84
2019-04-10 01:00:00 10.1 10 Sudoeste 16 Oeste 0 969.4 0.7 85
2019-04-10 00:00:00 10.4 9 Oeste 21 Oeste 0 969.6 1.3 82
2019-04-09 23:00:00 11.3 13 Oeste 20 Oeste 0 969.3 1.4 75
2019-04-09 22:00:00 12.3 10 Oeste 27 Oeste 0 968.7 0.7 69
2019-04-09 21:00:00 13.2 13 Oeste 36 Oeste 0 968.3 0.5 63
2019-04-09 20:00:00 14.1 18 Oeste 31 Oeste 0 967.9 -0.4 60
2019-04-09 19:00:00 14.6 17 Oeste 36 Noroeste 0 968 -0.4 56
2019-04-09 18:00:00 16.1 21 Oeste 35 Oeste 0 967.8 -1.2 52
2019-04-09 17:00:00 16 16 Noroeste 40 Oeste 0 968.3 -1.1 53
2019-04-09 16:00:00 16.5 19 Oeste 40 Oeste 0 968.4 -1.5 46
2019-04-09 15:00:00 15.5 18 Oeste 37 Oeste 0 969 -1.1 54
2019-04-09 14:00:00 14.5 18 Oeste 34 Oeste 0 969.4 -0.6 56
2019-04-09 13:00:00 14.4 16 Oeste 31 Oeste 0 969.9 -0.3 57
2019-04-09 12:00:00 12.8 14 Oeste 28 Oeste 0 970.1 0 68
2019-04-09 11:00:00 11 5 Sudoeste 11 Oeste 0 970 0.5 79
2019-04-09 10:00:00 9.5 5 Oeste 13 Oeste 0 970.2 1.1 86
2019-04-09 09:00:00 8.5 8 Oeste 15 Oeste 0 970.1 0.9 92
2019-04-09 08:00:00 6.9 3 Sudoeste 8 Oeste 0 969.5 0.4 91
2019-04-09 07:00:00 7.2 4 Sudoeste 8 Oeste 0 969.1 -0.2 90
2019-04-09 06:00:00 6.6 6 Sudoeste 10 Noroeste 0 969.2 -0.3 88
2019-04-09 05:00:00 8 6 Noroeste 14 Noroeste 0 969.1 0 87
2019-04-09 04:00:00 8.3 3 Sur 8 Sudoeste 0 969.3 0 84
2019-04-09 03:00:00 10.6 4 Oeste 21 Oeste 0 969.5 0.5 79
2019-04-09 02:00:00 11.2 5 Oeste 19 Oeste 0 969.1 0.3 80
2019-04-09 01:00:00 11.5 4 Sur 10 Sudoeste 0 969.3 1.2 81
2019-04-09 00:00:00 11.8 6 Sudoeste 20 Sudoeste 0 969 1.4 77
2019-04-08 23:00:00 12 8 Sudoeste 20 Sudoeste 0 968.8 1.3 76
2019-04-08 22:00:00 12.3 9 Sudoeste 22 Oeste 0 968.1 0.8 77
2019-04-08 21:00:00 13 9 Sudoeste 24 Sudoeste 0 967.6 0.4 78
2019-04-08 20:00:00 14.1 12 Sudoeste 35 Sudoeste 0 967.5 0.2 73
2019-04-08 19:00:00 14.7 22 Oeste 37 Oeste 0 967.3 -0.6 71
2019-04-08 18:00:00 13.7 18 Sudoeste -- -- 0.2 967.2 -0.8 81
2019-04-08 17:00:00 16 19 Sudoeste 36 Sudoeste 0 967.3 -1.1 68
2019-04-08 16:00:00 14.3 15 Oeste 32 Oeste 0.6 967.9 -0.6 81
2019-04-08 15:00:00 15.1 15 Sudoeste 28 Oeste 0.8 968 -0.5 77
2019-04-08 14:00:00 15.3 14 Oeste 31 Sudoeste 0 968.4 0.2 73
2019-04-08 13:00:00 15.7 17 Sudoeste 33 Oeste 0 968.5 0.2 64
2019-04-08 12:00:00 15 16 Oeste 37 Sudoeste 0 968.5 0.3 67
2019-04-08 11:00:00 15.2 15 Sudoeste 35 Oeste 0 968.2 0.3 71
2019-04-08 10:00:00 13.9 11 Oeste -- -- 0 968.3 0.6 82
2019-04-08 09:00:00 11.7 9 Oeste 21 Oeste 0 968.2 0.5 89
2019-04-08 08:00:00 10.2 9 Sur 13 Sur 0 967.9 0 91
2019-04-08 07:00:00 11 8 Sudoeste 16 Sudoeste 0 967.7 -0.4 91
2019-04-08 06:00:00 11.1 5 Sudoeste 12 Sur 0 967.7 -0.8 92
2019-04-08 05:00:00 10.9 5 Sur 12 Oeste 0 967.9 -0.7 91
2019-04-08 04:00:00 11.6 4 Oeste 18 Oeste 0.2 968.1 -0.8 90
2019-04-08 03:00:00 12 8 Sudoeste 22 Oeste 0 968.5 -0.4 89
2019-04-08 02:00:00 12.1 9 Sudoeste 22 Sudoeste 0 968.6 0 87
2019-04-08 01:00:00 12.3 11 Sudoeste 22 Sudoeste 0.2 968.9 0.9 89
2019-04-08 00:00:00 12.3 9 Oeste 28 Oeste 0.8 968.9 1.6 90
2019-04-07 23:00:00 12.9 16 Oeste 34 Oeste 0.6 968.6 1.6 90
2019-04-07 22:00:00 13 16 Oeste 28 Oeste 0.6 968 0.9 91
2019-04-07 21:00:00 12.5 9 Sudoeste 21 Sur 0.4 967.3 0.2 92
2019-04-07 20:00:00 12.5 9 Sur 15 Sudoeste 0.4 967 -0.3 89
2019-04-07 19:00:00 12.6 4 Sudoeste 17 Sudoeste 0.2 967.1 -0.5 87
2019-04-07 18:00:00 12.7 10 Sudoeste 19 Sudoeste 0 967.1 -0.3 85
2019-04-07 17:00:00 12.3 10 Oeste 27 Oeste 1.4 967.3 -0.1 87
2019-04-07 16:00:00 12.7 10 Oeste 33 Oeste 0.2 967.6 0.1 80
2019-04-07 15:00:00 14.8 17 Oeste 31 Noroeste 0 967.4 0.1 62
2019-04-07 14:00:00 13.8 17 Noroeste 36 Oeste 0 967.4 0.5 63
2019-04-07 13:00:00 13.1 19 Oeste 33 Oeste 0 967.5 1.1 64
2019-04-07 12:00:00 12 15 Oeste 31 Noroeste 0 967.3 1.5 67
2019-04-07 11:00:00 9.9 9 Oeste -- -- 0 966.9 1.7 83
2019-04-07 10:00:00 9.2 7 Noroeste 17 Oeste 0.2 966.4 1.7 87
2019-04-07 09:00:00 8.5 5 Oeste 19 Oeste 1 965.8 1.2 88
2019-04-07 08:00:00 8.4 5 Oeste 11 Oeste 0 965.2 0.6 87
2019-04-07 07:00:00 8.4 3 Nordeste 6 Norte 0 964.7 0 84
2019-04-07 06:00:00 8.2 0 Calma 18 Noroeste 0 964.6 0 82
2019-04-07 05:00:00 8.7 10 Oeste 26 Oeste 0 964.6 0.2 79
2019-04-07 04:00:00 8.9 13 Oeste 28 Oeste 0 964.7 0.7 78
2019-04-07 03:00:00 8.8 9 Oeste 27 Oeste 0 964.6 1 80
2019-04-07 02:00:00 8.4 10 Oeste 23 Oeste 0 964.4 1 79
2019-04-07 01:00:00 8.9 12 Oeste 32 Oeste 0 964 1.3 78
2019-04-07 00:00:00 9.1 18 Oeste 32 Oeste 0 963.6 1.6 83
2019-04-06 23:00:00 8.4 10 Oeste 24 Oeste 6.2 963.4 1.5 90
2019-04-06 22:00:00 8.9 7 Oeste 20 Oeste 0.4 962.7 1.6 88
2019-04-06 21:00:00 8.2 0 Calma 23 Sudoeste 1.2 962 1.8 85
2019-04-06 20:00:00 8.8 11 Oeste 30 Oeste 0.4 961.9 0.9 88
2019-04-06 19:00:00 8.8 17 Oeste 48 Oeste 1.2 961.1 1 84
2019-04-06 18:00:00 10.7 15 Oeste 34 Noroeste 0.2 960.2 -0.5 79
2019-04-06 17:00:00 8 17 Oeste 36 Oeste 1.8 961 0 86
2019-04-06 16:00:00 12.9 21 Oeste 44 Oeste 0 960.1 -1.3 56
2019-04-06 15:00:00 13.3 22 Oeste 46 Oeste 0.4 960.7 -0.8 58
2019-04-06 14:00:00 11.7 19 Oeste 34 Noroeste 0 961 -0.2 61
2019-04-06 13:00:00 11.1 17 Oeste 36 Oeste 0 961.4 0.3 72
2019-04-06 12:00:00 10 13 Oeste -- -- 0.2 961.5 0.4 77
2019-04-06 11:00:00 9.6 13 Sudoeste 24 Sudoeste 0 961.2 0.5 73
2019-04-06 10:00:00 8.1 9 Sudoeste -- -- 0.2 961.1 0.7 84
2019-04-06 09:00:00 7.8 8 Sur -- -- 0 961.1 1.1 82
2019-04-06 08:00:00 7.5 6 Sudoeste 11 Sur 0 960.7 0.7 80
2019-04-06 07:00:00 7.8 6 Sudoeste 11 Oeste 0 960.4 0.6 80
2019-04-06 06:00:00 7.5 2 Sudeste 11 Sudoeste 0 960 0 80
2019-04-06 05:00:00 7.1 3 Sudeste 7 Este 0 960 -0.1 81
2019-04-06 04:00:00 6.6 4 Oeste 18 Oeste 0 959.8 0.1 81
2019-04-06 03:00:00 6.8 11 Oeste 25 Oeste 0 960 0.8 78
2019-04-06 02:00:00 6.9 12 Oeste 35 Oeste 0 960.1 1.1 79
2019-04-06 01:00:00 7.3 18 Oeste 41 Oeste 0 959.7 1.6 76
2019-04-06 00:00:00 7.6 18 Oeste 37 Oeste 0 959.2 1.7 77
2019-04-05 23:00:00 7.5 12 Oeste 35 Oeste 0.2 959 1.8 81
2019-04-05 22:00:00 8.5 7 Oeste 23 Oeste 0 958.1 1.8 73
2019-04-05 21:00:00 8.7 4 Sudoeste 39 Oeste 0 957.5 1.6 71
2019-04-05 20:00:00 10.4 22 Oeste -- -- 0 957.2 1.5 57
2019-04-05 19:00:00 12.4 22 Oeste -- -- 0 956.3 1.1 50
2019-04-05 18:00:00 11.9 26 Oeste -- -- 0 955.9 0.3 47
2019-04-05 17:00:00 10.5 19 Oeste 41 Oeste 0.2 955.7 0.1 70
2019-04-05 16:00:00 12.7 22 Oeste -- -- 0 955.2 -0.2 51
2019-04-05 15:00:00 12.5 23 Oeste 43 Oeste 0 955.6 0.5 56
2019-04-05 14:00:00 9.1 14 Oeste -- -- 0.4 955.6 0.5 82
2019-04-05 13:00:00 8.7 10 Sudoeste 36 Oeste 2.6 955.4 0.7 85
2019-04-05 12:00:00 9.3 8 Sudoeste -- -- 0.8 955.1 0.2 87
2019-04-05 11:00:00 9 5 Sur 26 Sur 0.8 955.1 0.3 87
2019-04-05 10:00:00 8.6 13 Sur 26 Sur 2 954.7 -0.5 86
2019-04-05 09:00:00 8.7 10 Sudoeste 24 Sur 0.8 954.9 -0.7 86
2019-04-05 08:00:00 8.6 9 Sur 15 Sur 0 954.8 -1.1 81
2019-04-05 07:00:00 9.1 6 Sudoeste 17 Sudoeste 0 955.2 -1.3 74
2019-04-05 06:00:00 9.5 10 Sudoeste 16 Sudoeste 0 955.6 -1.4 69
2019-04-05 05:00:00 9.3 6 Sudoeste 18 Sudoeste 0 955.9 -1.1 69
2019-04-05 04:00:00 9.6 12 Sudoeste 35 Sudoeste 0 956.5 -0.4 62
2019-04-05 03:00:00 9.7 23 Sudoeste 41 Sudoeste 0 957 0.2 60
2019-04-05 02:00:00 9.5 16 Sudoeste 34 Sudoeste 0 957 0.5 63
2019-04-05 01:00:00 8.7 10 Sudoeste 21 Oeste 0 956.9 0.7 58
2019-04-05 00:00:00 9.5 11 Sudoeste 23 Sudoeste 0 956.8 1.2 49
2019-04-04 23:00:00 10.2 7 Sudoeste 25 Sudoeste 0 956.5 1.3 46
2019-04-04 22:00:00 11.1 11 Sudoeste 30 Sudoeste 0 956.2 1.2 43
2019-04-04 21:00:00 12.5 15 Oeste -- -- 0 955.6 0.2 36
2019-04-04 20:00:00 14.9 23 Oeste -- -- 0 955.2 -0.3 37
2019-04-04 19:00:00 17.3 17 Oeste 33 Noroeste 0 955 -1 29
2019-04-04 18:00:00 18 16 Oeste 33 Oeste 0 955.4 -1.2 28
2019-04-04 17:00:00 18 18 Oeste 31 Oeste 0 955.5 -1.6 27
2019-04-04 16:00:00 17.7 17 Oeste 29 Oeste 0 956 -1.4 30
2019-04-04 15:00:00 17.2 16 Oeste 31 Oeste 0 956.6 -0.9 32
2019-04-04 14:00:00 16.4 13 Oeste 28 Noroeste 0 957.1 0 32
2019-04-04 13:00:00 14.8 5 Oeste 16 Sudoeste 0 957.4 0.4 31
2019-04-04 12:00:00 13 9 Noroeste 18 Noroeste 0 957.5 1 39
2019-04-04 11:00:00 11.1 9 Oeste 16 Noroeste 0 957.1 1 46
2019-04-04 10:00:00 9.4 6 Noroeste 16 Oeste 0 957 1.1 49
2019-04-04 09:00:00 6.4 -- -- -- -- 0 956.5 0.9 65
2019-04-04 08:00:00 5.7 6 Oeste 13 Oeste 0 956.1 0.6 67
2019-04-04 07:00:00 6.3 9 Oeste 14 Oeste 0 955.9 0.3 73
2019-04-04 06:00:00 7.4 2 Sudoeste 13 Oeste 0 955.6 -0.5 58
2019-04-04 05:00:00 8.9 6 Noroeste 13 Noroeste 0 955.5 -0.9 53
2019-04-04 04:00:00 8.6 4 Noroeste 12 Oeste 0 955.6 -1.2 64
2019-04-04 03:00:00 8.6 4 Oeste 10 Sudoeste 0 956.1 -1 69
2019-04-04 02:00:00 9.7 6 Oeste 15 Oeste 0 956.4 -0.8 66
2019-04-04 01:00:00 10.3 11 Oeste 17 Oeste 0 956.8 0 63
2019-04-04 00:00:00 9.8 7 Oeste 12 Oeste 0 957.1 0.5 68
2019-04-03 23:00:00 11.7 2 Sudoeste 15 Sudoeste 0 957.2 0.6 63
2019-04-03 22:00:00 12.9 9 Sudoeste 12 Sudoeste 0 956.8 0 60
2019-04-03 21:00:00 15.7 8 Oeste -- -- 0 956.6 -0.5 48
2019-04-03 20:00:00 18.2 16 Oeste -- -- 0 956.6 -1 37
2019-04-03 19:00:00 19.6 -- -- -- -- 0 956.8 -1.7 33
2019-04-03 18:00:00 20.5 18 Oeste 33 Oeste 0 957.1 -2.3 31
2019-04-03 17:00:00 20.9 18 Oeste 34 Oeste 0 957.6 -2.4 36
2019-04-03 16:00:00 20.3 17 Oeste 30 Oeste 0 958.5 -2.1 40
2019-04-03 15:00:00 20.7 12 Sudoeste 25 Oeste 0 959.4 -1.8 38
2019-04-03 14:00:00 20.6 11 Oeste 24 Oeste 0 960 -1.2 40
2019-04-03 13:00:00 20.1 3 Oeste 10 Norte 0 960.6 -1 51
2019-04-03 12:00:00 16.9 4 Nordeste 10 Norte 0 961.2 -1 57
2019-04-03 11:00:00 14.8 2 Noroeste 6 Noroeste 0 961.2 -1.3 69
2019-04-03 10:00:00 12.2 0 Calma -- -- 0 961.6 -1.3 85
2019-04-03 09:00:00 9.1 5 Sur 12 Sur 0 962.2 -1.2 92
2019-04-03 08:00:00 8.2 6 Sur 13 Sur 0 962.5 -1.6 92
2019-04-03 07:00:00 8.7 6 Sur 10 Sur 0 962.9 -1.7 93
2019-04-03 06:00:00 9 7 Sur 12 Sur 0 963.4 -1.9 92
2019-04-03 05:00:00 9.4 8 Sur 12 Sur 0 964.1 -1.7 92
2019-04-03 04:00:00 8.9 6 Sur 9 Sur 0 964.6 -1.4 90
2019-04-03 03:00:00 10.2 7 Sur 12 Sur 0 965.3 -1 89
2019-04-03 02:00:00 9.3 8 Sur 10 Sur 0 965.8 -0.3 88
2019-04-03 01:00:00 10.5 5 Sur 9 Sur 0 966 0.1 85
2019-04-03 00:00:00 11 4 Sur 8 Sur 0 966.3 0.6 85
2019-04-02 23:00:00 12.5 6 Sur 9 Sur 0 966.1 0.4 77
2019-04-02 22:00:00 14.1 2 Sudoeste 10 Oeste 0 965.9 0 70
2019-04-02 21:00:00 15.1 5 Sudoeste 7 Sudoeste 0 965.7 -0.2 71
2019-04-02 20:00:00 18.3 3 Sudoeste 13 Oeste 0 965.7 -0.8 51
2019-04-02 19:00:00 18.3 6 Noroeste -- -- 0 965.9 -0.9 49
2019-04-02 18:00:00 18.7 8 Norte 18 Norte 0 965.9 -1.5 50
2019-04-02 17:00:00 18.4 8 Noroeste 16 Noroeste 0 966.5 -1.5 48
2019-04-02 16:00:00 18.4 4 Nordeste -- -- -- 966.8 -1.7 46
2019-04-02 15:00:00 19.1 6 Norte 12 Noroeste -- 967.4 -1.6 46
2019-04-02 14:00:00 17.6 5 Nordeste 12 Norte 0 968 -0.9 50
2019-04-02 13:00:00 16.3 5 Noroeste 13 Norte 0 968.5 0 62
2019-04-02 12:00:00 14.7 4 Este 13 Nordeste 0 969 0.7 77
2019-04-02 11:00:00 11.9 6 Norte 12 Norte 0 968.9 1.1 87
2019-04-02 10:00:00 9.7 3 Sur 10 Sur 0 968.5 0.7 93
2019-04-02 09:00:00 7 8 Sur -- -- 0 968.3 0.5 93
2019-04-02 08:00:00 6.2 5 Sur 8 Sur 0 967.8 0.1 93
2019-04-02 07:00:00 7.1 8 Sur 10 Sur 0 967.8 -0.3 93
2019-04-02 06:00:00 7.6 7 Sur 14 Sur 0 967.8 -0.8 93
2019-04-02 05:00:00 8.1 9 Sur 11 Sur 0 967.7 -1 92
2019-04-02 04:00:00 7.6 8 Sur 9 Sur 0 968.1 -0.8 92
2019-04-02 03:00:00 8.4 3 Sudoeste 10 Sur 0 968.6 0 91
2019-04-02 02:00:00 9.5 7 Sur 9 Sur 0 968.7 0.4 91
2019-04-02 01:00:00 10.1 4 Sur 10 Sudoeste 0 968.9 1.2 91
2019-04-02 00:00:00 11.1 8 Sur 14 Sur 0 968.6 1.8 91
2019-04-01 23:00:00 11.4 8 Sur 12 Sur 0 968.3 2.1 90
2019-04-01 22:00:00 12.5 7 Sur 13 Sudoeste 0 967.7 1.8 89
2019-04-01 21:00:00 13 4 Sur 10 Noroeste 0 966.8 0.9 83
2019-04-01 20:00:00 13.6 5 Norte 10 Norte 0 966.2 0.6 81
2019-04-01 19:00:00 14.2 5 Este 24 Sudoeste 0 965.9 0.3 85
2019-04-01 18:00:00 14.3 13 Sudoeste 26 Sudoeste 0 965.9 0 73
2019-04-01 17:00:00 15.6 9 Sur 21 Sur 0 965.6 -0.5 63
2019-04-01 16:00:00 16.8 11 Sur 24 Sur 0 965.6 -0.8 58
2019-04-01 15:00:00 16.6 12 Sur 25 Sur 0 965.9 -0.5 62
2019-04-01 14:00:00 16.4 9 Sur 21 Sudoeste 0 966.1 0.2 59
2019-04-01 13:00:00 15.2 8 Sur 19 Sur 0 966.4 1.3 66
2019-04-01 12:00:00 14.3 13 Sur 23 Sudoeste 0 966.4 1.7 72
2019-04-01 11:00:00 13.5 13 Sur -- -- 0 965.9 1.6 82
2019-04-01 10:00:00 11.5 -- -- -- -- 0 965.1 1.1 93
2019-04-01 09:00:00 9.8 10 Sur -- -- 0 964.7 0.9 93
2019-04-01 08:00:00 8.5 3 Norte 12 Sur 0 964.3 0.3 93
2019-04-01 07:00:00 8.4 8 Sur 9 Sur 0 964 -0.1 92
2019-04-01 06:00:00 9.3 6 Sur 12 Sur 0 963.8 -0.5 93
2019-04-01 05:00:00 10 5 Sur 13 Sur 0 964 -0.4 92
2019-04-01 04:00:00 10.1 8 Sur 13 Sur 0 964.1 -0.2 92
2019-04-01 03:00:00 11.1 10 Sur 16 Sur 0 964.3 -0.1 92
2019-04-01 02:00:00 11.4 5 Sur 10 Sur 0 964.4 0.1 92
2019-04-01 01:00:00 11.7 4 Sur 10 Sur 0 964.3 1 91
2019-04-01 00:00:00 11.8 3 Sur 8 Sur 0 964.4 2 90
2019-03-31 23:00:00 11.9 3 Noroeste 13 Sudoeste 0 964.3 2.7 87
2019-03-31 22:00:00 12 10 Sudoeste 30 Sudoeste 0 963.3 2.2 86
2019-03-31 21:00:00 12 19 Sudoeste 37 Oeste 0 962.4 1.1 80
2019-03-31 20:00:00 17.3 3 Sudeste 11 Este 0 961.6 0.1 60
2019-03-31 19:00:00 18.2 6 Norte 14 Norte 0 961.1 -0.9 50
2019-03-31 18:00:00 19 7 Norte 17 Norte 0 961.3 -1.5 48
2019-03-31 17:00:00 18.6 6 Norte 21 Norte 0 961.5 -1.8 48
2019-03-31 16:00:00 17.9 8 Nordeste 14 Nordeste 0 962 -1.9 52
2019-03-31 15:00:00 17.2 6 Norte -- -- 0 962.8 -1.4 52
2019-03-31 14:00:00 16 3 Noroeste 9 Noroeste 0 963.3 -0.7 66
2019-03-31 13:00:00 14.8 4 Norte -- -- 0 963.9 0.1 72
2019-03-31 12:00:00 13.8 -- -- -- -- 0 964.2 0.6 82
2019-03-31 11:00:00 12.4 2 Sudeste 6 Sur 0 964 0.4 91
2019-03-31 10:00:00 11.6 3 Sudeste 6 Sur 0 963.8 0.2 92
2019-03-31 09:00:00 11.2 3 Sudeste 10 Sur 0 963.6 -0.3 92
2019-03-31 08:00:00 11.1 5 Sur 10 Sur 0 963.6 -0.9 92
2019-03-31 07:00:00 11.1 3 Sur 11 Sur 0 963.6 -1.4 91
2019-03-31 06:00:00 11.3 6 Sur 11 Sur 0 963.9 -1.7 91
2019-03-31 05:00:00 11.4 4 Sur 19 Sur 0 964.5 -1.7 90
2019-03-31 03:00:00 11.8 10 Sur 25 Sur 0 965.6 -1.4 80
2019-03-31 01:00:00 12.1 16 Sur 33 Sur 0 966.2 -0.6 78
2019-03-31 00:00:00 12.4 20 Sur 40 Sur 0 966.9 0.4 76
2019-03-30 23:00:00 12.2 18 Sur 34 Sur 0 967 1.2 73
2019-03-30 22:00:00 12.1 19 Sur 38 Sur 0 966.8 0.4 72
2019-03-30 21:00:00 12.5 17 Sur 34 Sur 0 966.5 0 67
2019-03-30 20:00:00 12.6 22 Sur 41 Sudeste 0 965.8 -0.6 66
2019-03-30 19:00:00 13.3 27 Sur 48 Sur 0 966.4 0.1 63
2019-03-30 18:00:00 14.5 26 Sur -- -- 0 966.5 -0.3 56
2019-03-30 17:00:00 16.6 24 Sur 45 Sur 0 966.4 -1.3 50
2019-03-30 16:00:00 17.3 24 Sur 48 Sur 0 966.3 -2.3 44
2019-03-30 15:00:00 18.1 26 Sur 42 Sur 0 966.8 -2.3 38
2019-03-30 14:00:00 18.3 21 Sur 40 Sur 0 967.7 -2 41
2019-03-30 13:00:00 17.5 21 Sur -- -- 0 968.6 -1 43
2019-03-30 12:00:00 16.9 21 Sur 41 Sudeste 0 969.1 0 47
2019-03-30 11:00:00 15.3 23 Sur 39 Sudeste 0 969.7 0.1 50
2019-03-30 10:00:00 14.1 21 Sur 46 Sur 0 969.6 -0.3 56
2019-03-30 09:00:00 12.3 27 Sur 48 Sur 0 969.1 -0.5 65
2019-03-30 08:00:00 11 23 Sur 39 Sur 0 969.6 -0.3 70
2019-03-30 07:00:00 10.7 18 Sur 37 Sur 0 969.9 -0.5 74
2019-03-30 06:00:00 10.7 20 Sur 37 Sur 0 969.6 -1 74
2019-03-30 05:00:00 10.6 20 Sur 36 Sur 0 969.9 -1.1 75
2019-03-30 04:00:00 10.8 14 Sur 39 Sur 0 970.4 -1.2 74
2019-03-30 03:00:00 11.1 23 Sur 39 Sur 0 970.6 -1.4 71
2019-03-30 02:00:00 11.4 20 Sur 42 Sur 0 971 -1.4 71
2019-03-30 01:00:00 11.5 24 Sur 45 Sur 0 971.6 -0.5 72
2019-03-30 00:00:00 11.3 19 Sur 36 Sur 0 972 0.6 73
2019-03-29 23:00:00 11.4 21 Sur 41 Sur 0 972.4 1.2 73
2019-03-29 22:00:00 11.3 20 Sur 40 Sur 0 972.1 0.8 73
2019-03-29 21:00:00 11.8 24 Sur 42 Sur 0 971.4 0.3 70
2019-03-29 20:00:00 12.7 21 Sur 39 Sur 0 971.2 0 60
2019-03-29 19:00:00 14 25 Sur 43 Sur 0 971.3 -0.4 51
2019-03-29 18:00:00 15.2 27 Sur 46 Sur 0 971.1 -1.1 49
2019-03-29 17:00:00 16.9 21 Sur 42 Sur 0 971.2 -1.4 41
2019-03-29 16:00:00 16.8 24 Sur 43 Sur 0 971.7 -1.2 40
2019-03-29 15:00:00 16.6 23 Sur 42 Sur 0 972.2 -1 40
2019-03-29 14:00:00 17.3 25 Sur 43 Sur 0 972.6 -1 38
2019-03-29 13:00:00 17.2 23 Sur 42 Sur 0 972.9 -0.6 39
2019-03-29 12:00:00 16.3 23 Sur 42 Sur 0 973.2 -0.4 45
2019-03-29 11:00:00 15 23 Sur 46 Sudeste 0 973.6 0.2 46
2019-03-29 10:00:00 13 20 Sur 39 Sur 0 973.5 0.4 56
2019-03-29 09:00:00 11.5 21 Sur 39 Sur 0 973.6 0.8 60
2019-03-29 08:00:00 10.6 17 Sur 38 Sur 0 973.4 0.5 60
2019-03-29 07:00:00 10.1 17 Sudeste 36 Sudeste 0 973.1 0 59
2019-03-29 06:00:00 9.8 17 Sudeste 32 Sur 0 972.8 -0.6 59
2019-03-29 05:00:00 9.5 13 Sudeste 27 Sur 0 972.9 -0.8 58
2019-03-29 04:00:00 9.1 12 Sudeste 25 Sudeste 0 973.1 -0.9 66
2019-03-29 03:00:00 8.2 10 Sudeste 29 Sudeste 0 973.4 -0.7 76
2019-03-29 02:00:00 9.6 17 Sudeste 31 Sudeste 0 973.7 -0.8 77
2019-03-29 01:00:00 9.8 13 Sudeste 33 Sudeste 0 974 -0.2 71
2019-03-29 00:00:00 10.2 17 Sur 39 Sudeste 0 974.1 0.5 72
2019-03-28 23:00:00 10.4 18 Sudeste 35 Sudeste 0 974.5 1.4 67
2019-03-28 22:00:00 10.6 21 Sur 37 Sur 0 974.2 1.3 64
2019-03-28 21:00:00 11.2 22 Sur 39 Sur 0 973.6 1.1 58
2019-03-28 20:00:00 11.8 22 Sur 43 Sur 0 973.1 0.6 51
2019-03-28 19:00:00 13.6 23 Sur 44 Sur 0 972.9 0 40
2019-03-28 18:00:00 15.8 27 Sur 49 Sur 0 972.5 -1.1 29
2019-03-28 17:00:00 17.8 23 Sur 41 Sur 0 972.5 -1.8 22
2019-03-28 16:00:00 18.7 24 Sur 41 Sudeste 0 972.9 -2 21
2019-03-28 15:00:00 19.3 23 Sudeste 48 Sudeste 0 973.6 -1.7 11
2019-03-28 14:00:00 18.5 26 Sudeste 53 Este 0 974.3 -1.4 12
2019-03-28 13:00:00 17.9 26 Sudeste 49 Sudeste 0 974.9 -1 16
2019-03-28 12:00:00 17.4 26 Sudeste 47 Sudeste 0 975.3 -0.5 25
2019-03-28 11:00:00 15.6 18 Sudeste 36 Sudeste 0 975.7 0.3 34
2019-03-28 10:00:00 13.8 13 Sur 27 Sur 0 975.9 1.1 43
2019-03-28 09:00:00 11.1 10 Sur 17 Sudeste 0 975.8 1.3 54
2019-03-28 08:00:00 7.6 8 Sudeste 16 Sudeste 0 975.4 1.1 73
2019-03-28 07:00:00 5.6 7 Sudeste 13 Sudeste 0 974.8 0.7 80
2019-03-28 06:00:00 7.2 8 Sudeste 17 Sudeste 0 974.5 0.2 76
2019-03-28 05:00:00 9.1 9 Sudeste 28 Sur 0 974.3 -0.2 67
2019-03-28 04:00:00 9.5 13 Sur 27 Sur 0 974.1 -0.6 69
2019-03-28 03:00:00 9.9 15 Sur 26 Sur 0 974.3 -0.3 74
2019-03-28 02:00:00 10.3 14 Sur 34 Sur 0 974.5 0.2 73
2019-03-28 01:00:00 10.7 18 Sur 33 Sur 0 974.7 0.7 74
2019-03-28 00:00:00 10.8 14 Sudeste 35 Sudeste 0 974.6 1.4 71
2019-03-27 23:00:00 11.1 22 Sur 36 Sur 0 974.3 1.9 70
2019-03-27 22:00:00 11.1 18 Sur 36 Sur 0 974 2.3 70
2019-03-27 21:00:00 11.3 21 Sur 38 Sudeste 0 973.2 2.1 64
2019-03-27 20:00:00 12 22 Sur 36 Sur 0 972.4 1.5 59
2019-03-27 19:00:00 13.9 21 Sur 37 Sur 0 971.7 0.6 49
2019-03-27 18:00:00 16 21 Sur 39 Sur 0 971.1 0.1 38
2019-03-27 17:00:00 17.5 21 Sur 33 Sur 0 970.9 -0.5 33
2019-03-27 16:00:00 18.9 19 Sur 30 Sudeste 0 971.1 -0.5 29
2019-03-27 15:00:00 19.5 15 Sur 30 Sur 0 971 -0.8 26
2019-03-27 14:00:00 19.3 6 Sur 23 Sur 0 971.4 -0.5 27
2019-03-27 13:00:00 18.2 5 Sudeste 18 Sudoeste 0 971.6 0.1 32
2019-03-27 12:00:00 17.2 8 Sur 17 Sur 0 971.8 0.7 34
2019-03-27 11:00:00 15.9 5 Sudeste 15 Este 0 971.9 1.1 27
2019-03-27 10:00:00 13.6 3 Nordeste 13 Este 0 971.5 1.3 46
2019-03-27 09:00:00 11.4 3 Este 13 Sudeste 0 971.1 1.7 59
2019-03-27 08:00:00 8.7 9 Sudeste 16 Sudeste 0 970.8 1.7 65
2019-03-27 07:00:00 7.8 8 Sudeste 18 Sudeste 0 970.2 1.4 70
2019-03-27 06:00:00 9.3 12 Sur 28 Sudeste 0 969.4 0.9 65
2019-03-27 05:00:00 10 17 Sur 31 Sudeste 0 969.1 0.6 70
2019-03-27 04:00:00 10.5 20 Sur 39 Sur 0 968.8 0.4 68
2019-03-27 03:00:00 11.2 18 Sur 35 Sur 0 968.5 0.4 65
2019-03-27 02:00:00 11.7 14 Sur 29 Sur 0 968.5 0.8 72
2019-03-27 01:00:00 11.8 13 Sur 28 Sur 0 968.4 1.3 67
2019-03-27 00:00:00 12.2 14 Sur 32 Sur 0 968.1 1.9 73
2019-03-26 23:00:00 12.8 20 Sur 37 Sur 0 967.7 2.9 74
2019-03-26 22:00:00 13.4 21 Sur 40 Sur 0 967.1 2.5 70
2019-03-26 21:00:00 13.7 19 Sur 37 Sur 0 966.2 2.1 67
2019-03-26 20:00:00 14.2 19 Sur 40 Sur 0 964.8 1 61
2019-03-26 19:00:00 15.6 22 Sur 44 Sur 0 964.6 0.8 53
2019-03-26 18:00:00 16.9 24 Sur 42 Sur 0 964.1 0.1 48
2019-03-26 17:00:00 18 23 Sur 42 Sur 0 963.8 -0.3 41
2019-03-26 16:00:00 20.6 26 Sur 43 Sur 0 963.8 -0.7 30
2019-03-26 15:00:00 21.6 25 Sur 44 Sur 0 964 -0.8 29
2019-03-26 14:00:00 22.9 19 Sur 36 Sudeste 0 964.1 -1 28
2019-03-26 13:00:00 22.8 18 Sur 34 Sudeste 0 964.5 -0.3 26
2019-03-26 12:00:00 21.7 17 Sur 30 Sur 0 964.8 0.3 31
2019-03-26 11:00:00 18.2 14 Sur 22 Sur 0 965.1 0.6 41
2019-03-26 10:00:00 16 12 Sudeste 21 Sudeste 0 964.8 0.5 47
2019-03-26 09:00:00 13.7 13 Sur 18 Sur 0 964.5 0.3 57
2019-03-26 08:00:00 10.6 8 Sur 14 Sudeste 0 964.5 0.1 73
2019-03-26 07:00:00 10.3 8 Sudeste 16 Sur 0 964.3 -0.6 75
2019-03-26 06:00:00 11.1 10 Sur 18 Sur 0 964.2 -1 74
2019-03-26 05:00:00 11.8 13 Sur 23 Sur 0 964.4 -1.3 73
2019-03-26 04:00:00 12.1 12 Sudeste 28 Sur 0 964.9 -1.3 73
2019-03-26 03:00:00 12.6 15 Sur 31 Sur 0 965.2 -1.1 71
2019-03-26 02:00:00 12.8 17 Sur 30 Sur 0 965.7 -0.6 71
2019-03-26 01:00:00 12.9 19 Sur 30 Sur 0 966.2 0 68
2019-03-26 00:00:00 12.9 16 Sur 27 Sur 0 966.3 0.3 65
2019-03-25 23:00:00 13.9 17 Sur 34 Sur 0 966.3 0.4 59
2019-03-25 22:00:00 14 15 Sur 31 Sur 0 966.2 0.5 58
2019-03-25 21:00:00 14.4 15 Sur 26 Sur 0 966 0.5 56
2019-03-25 20:00:00 15.6 12 Sur 29 Sur 0 965.9 0 50
2019-03-25 19:00:00 17.9 17 Sur 33 Sur 0 965.7 -0.6 42
2019-03-25 18:00:00 19.9 17 Sur 35 Sudoeste 0 965.5 -1.4 38
2019-03-25 17:00:00 21.3 19 Sur 34 Sur 0 965.9 -2 34
2019-03-25 16:00:00 22 18 Sur 33 Sur 0 966.3 -2.5 31
2019-03-25 15:00:00 22.2 19 Sur 31 Sur 0 966.9 -2.6 31
2019-03-25 14:00:00 22.4 14 Sur 30 Sur 0 967.9 -2.3 32
2019-03-25 13:00:00 21.6 15 Sudeste 27 Sudeste 0 968.8 -1.2 33
2019-03-25 12:00:00 21.1 11 Sudeste 24 Este 0 969.5 -0.5 32
2019-03-25 11:00:00 18.3 6 Sur 12 Sur 0 970.2 0.1 39
2019-03-25 10:00:00 14.8 4 Noroeste 11 Sur 0 970 0.2 48
2019-03-25 09:00:00 11 8 Sur 12 Sur 0 970 0.3 66
2019-03-25 08:00:00 6.6 6 Sur 9 Sur 0 970.1 0.3 84
2019-03-25 07:00:00 5.9 5 Sur 10 Sur 0 969.8 -0.4 85
2019-03-25 06:00:00 6.3 6 Sur 10 Sur 0 969.7 -0.8 85
2019-03-25 05:00:00 5.8 8 Sur 9 Sur 0 969.8 -0.9 84
2019-03-25 04:00:00 6.5 5 Sur 12 Sur 0 970.2 -0.9 82
2019-03-25 03:00:00 7 4 Sur 10 Sur 0 970.5 -0.8 80
2019-03-25 02:00:00 8.4 6 Sur 8 Sur 0 970.7 -0.9 76
2019-03-25 01:00:00 11 3 Oeste 12 Sur 0 971.1 -0.3 66
2019-03-25 00:00:00 12.5 8 Sur 13 Sur 0 971.3 0.2 63
2019-03-24 23:00:00 12.8 6 Sur 17 Sur 0 971.6 0.7 64
2019-03-24 22:00:00 13.1 10 Sur 21 Sur 0 971.4 0.6 64
2019-03-24 21:00:00 13.6 11 Sur 20 Sur 0 971.1 0.4 61
2019-03-24 20:00:00 14.7 9 Sur 18 Sur 0 970.9 0.4 55
2019-03-24 19:00:00 16.1 10 Sudeste 28 Sur 0 970.8 0.2 49
2019-03-24 18:00:00 16.6 18 Sur 31 Sur 0 970.7 -0.2 50
2019-03-24 17:00:00 16.6 17 Sur 30 Sur 0 970.5 -0.7 55
2019-03-24 16:00:00 15.6 14 Sur 25 Sudeste 0 970.6 -0.7 62
2019-03-24 15:00:00 16.6 13 Sur -- -- 0 970.9 -1 57
2019-03-24 14:00:00 18.3 21 Sudeste 43 Sudeste 0 971.2 -0.8 37
2019-03-24 13:00:00 20.6 13 Este 22 Sudeste 0 971.3 -0.3 37
2019-03-24 12:00:00 17 10 Sudeste 27 Sur 0 971.9 0.8 50
2019-03-24 11:00:00 16.2 12 Sudeste 25 Sudeste 0 972 1.2 55
2019-03-24 10:00:00 14.2 13 Sudeste 28 Sudeste 0 971.6 1 63
2019-03-24 09:00:00 11.8 9 Este -- -- 0 971.1 0.4 69
2019-03-24 08:00:00 7.8 9 Este -- -- 0 970.8 0.1 77
2019-03-24 07:00:00 8.3 8 Sudeste 13 Sudeste 0 970.6 0 74
2019-03-24 06:00:00 8.8 6 Sudeste 17 Sudeste 0 970.7 -0.3 73
2019-03-24 05:00:00 7.4 8 Sudeste 12 Sudeste 0 970.7 -0.5 84
2019-03-24 04:00:00 7.3 3 Sudeste 14 Sudeste 0 970.6 -0.8 81
2019-03-24 03:00:00 9.4 11 Sudeste 15 Sudeste 0 971 -0.7 80
2019-03-24 02:00:00 8.8 6 Sudeste 15 Sudeste 0 971.2 -0.9 81
2019-03-24 01:00:00 10.9 9 Sudeste 19 Sur 0 971.4 -0.5 76
2019-03-24 00:00:00 11.1 10 Sudeste 21 Sudeste 0 971.7 -0.1 79
2019-03-23 23:00:00 11 13 Sudeste 21 Sudeste 0 972.1 0.8 79
2019-03-23 22:00:00 11.2 13 Sudeste 21 Sur 0 971.9 0.9 74
2019-03-23 21:00:00 12 10 Sur 24 Sur 0 971.8 1.3 65
2019-03-23 20:00:00 12.6 11 Sur 26 Sur 0 971.3 0.9 62
2019-03-23 19:00:00 14.1 18 Sur 35 Sur 0 971 0.5 57
2019-03-23 18:00:00 14.7 19 Sur 35 Sur 0 970.5 -0.8 54
2019-03-23 17:00:00 17.4 17 Sur 36 Sur 0 970.4 -1.8 45
2019-03-23 16:00:00 18.9 18 Sudeste -- -- 0 970.5 -2.5 31
2019-03-23 15:00:00 19 -- -- -- -- 0 971.3 -2.2 32
2019-03-23 14:00:00 18.4 26 Sudeste -- -- 0 972.2 -1.5 33
2019-03-23 13:00:00 18.8 23 Sudeste 41 Sudeste 0 973 -1 35
2019-03-23 12:00:00 17.6 23 Sudeste 43 Sudeste 0 973.5 -0.4 39
2019-03-23 11:00:00 16.7 20 Sudeste 35 Sudeste 0 973.7 -0.2 43
2019-03-23 10:00:00 14.6 9 Sudeste 16 Sudeste 0 974 0.3 51
2019-03-23 09:00:00 10.1 7 Este 14 Sur 0 973.9 0.1 77
2019-03-23 08:00:00 4.8 7 Sur 11 Sur 0 973.9 0 92
2019-03-23 07:00:00 4.2 3 Sudeste 10 Sur 0 973.7 -0.5 91
2019-03-23 06:00:00 4.3 4 Sudoeste 9 Sur 0 973.8 -0.9 89
2019-03-23 05:00:00 5.6 7 Sur 10 Sur 0 973.9 -0.9 88
2019-03-23 04:00:00 6.5 4 Sudoeste 10 Sur 0 974.2 -0.5 84
2019-03-23 03:00:00 8.5 8 Sur 21 Sur 0 974.7 -0.3 83
2019-03-23 02:00:00 9.1 15 Sur 25 Sur 0 974.8 -0.4 81
2019-03-23 01:00:00 9.2 12 Sur 22 Sudeste 0 974.7 -0.3 80
2019-03-23 00:00:00 9.8 13 Sur 28 Sur 0 975 0.6 77
2019-03-22 23:00:00 10.5 17 Sur 30 Sur 0 975.2 1.3 73
2019-03-22 22:00:00 10.8 17 Sur 30 Sur 0 975 1.4 69
2019-03-22 21:00:00 11.3 15 Sur 30 Sur 0 974.4 1 64
2019-03-22 20:00:00 12.4 18 Sur 32 Sur 0 973.9 0.4 55
2019-03-22 19:00:00 14.3 18 Sur 31 Sur 0 973.6 -0.1 51
2019-03-22 18:00:00 16.6 14 Sur 29 Sur 0 973.4 -0.6 43
2019-03-22 17:00:00 17.2 19 Sur 32 Sur 0 973.5 -0.9 39
2019-03-22 16:00:00 18.5 15 Sur 32 Sur 0 973.7 -1.1 36
2019-03-22 15:00:00 18.9 14 Sur 28 Sur 0 974 -1.4 32
2019-03-22 14:00:00 18.7 16 Sur 25 Sur 0 974.4 -1.4 30
2019-03-22 13:00:00 17.7 12 Sudeste 30 Sudeste 0 974.8 -1.1 28
2019-03-22 12:00:00 17.1 12 Sudeste 23 Este 0 975.4 -0.2 30
2019-03-22 11:00:00 14.4 5 Este 12 Este 0 975.8 0 44
2019-03-22 10:00:00 11.4 2 Norte -- -- 0 975.9 0.4 57
2019-03-22 09:00:00 7.9 2 Norte 6 Sur 0 975.6 0.4 80
2019-03-22 08:00:00 2.4 6 Sur 10 Sur 0 975.8 0.7 91
2019-03-22 07:00:00 1.7 3 Sudoeste 8 Sur 0 975.5 0.3 90
2019-03-22 06:00:00 2.2 5 Sur 11 Sur 0 975.2 -0.3 89
2019-03-22 05:00:00 2.9 3 Nordeste 8 Sur 0 975.1 -0.5 87
2019-03-22 04:00:00 4.2 6 Sur 9 Sur 0 975.2 -0.3 84
2019-03-22 03:00:00 6.5 2 Norte 15 Sur 0 975.5 -0.4 79
2019-03-22 02:00:00 8 10 Sur 19 Sur 0 975.6 -0.3 80
2019-03-22 01:00:00 8.8 12 Sur 22 Sur 0 975.5 -0.2 77
2019-03-22 00:00:00 9.1 13 Sur 27 Sur 0 975.9 0.6 71
2019-03-21 23:00:00 9.4 14 Sur 26 Sur 0 975.9 1.1 68
2019-03-21 22:00:00 9.8 15 Sur 28 Sur 0 975.7 1.3 68
2019-03-21 21:00:00 10.1 13 Sur 24 Sur 0 975.3 1.3 64
2019-03-21 20:00:00 11 15 Sur 31 Sur 0 974.8 0.9 56
2019-03-21 19:00:00 12.7 19 Sur 33 Sur 0 974.4 0.4 47
2019-03-21 18:00:00 14.7 21 Sur 36 Sur 0 974 -0.2 39
2019-03-21 17:00:00 16.1 19 Sur 35 Sur 0 973.9 -1 35
2019-03-21 16:00:00 17.4 15 Sur 30 Sur 0 974 -1.6 29
2019-03-21 15:00:00 17.7 15 Sur 39 Sudeste 0 974.2 -1.8 28
2019-03-21 14:00:00 17.9 9 Este 24 Este 0 974.9 -1.5 20
2019-03-21 13:00:00 16.6 15 Este 33 Este 0 975.6 -0.9 20
2019-03-21 12:00:00 16.1 9 Sudeste 21 Sudeste 0 976 -0.4 24
2019-03-21 11:00:00 14.6 9 Sudeste 23 Este 0 976.4 0.4 30
2019-03-21 10:00:00 12.1 8 Este 17 Este 0 976.5 1 41
2019-03-21 09:00:00 7.2 4 Noroeste 9 Sur 0 976.4 1.2 74
2019-03-21 08:00:00 1.9 8 Sur -- -- 0 976 0.9 92
2019-03-21 07:00:00 2.5 2 Sudoeste 9 Noroeste 0 975.5 0.4 92
2019-03-21 06:00:00 2 3 Sudoeste 7 Sur 0 975.2 -0.4 90
2019-03-21 05:00:00 3.1 8 Sur 10 Sur 0 975.1 -0.8 90
2019-03-21 04:00:00 3.7 3 Oeste 9 Sur 0 975.1 -0.8 88
2019-03-21 03:00:00 4.6 3 Sur 8 Sur 0 975.6 -0.6 82
2019-03-21 02:00:00 7 2 Sur 19 Sur 0 975.9 -0.3 74
2019-03-21 01:00:00 8.3 10 Sur 19 Sur 0 975.9 -0.2 73
2019-03-21 00:00:00 9.6 13 Sur 23 Sur 0 976.2 0.3 69